createdAt,value
2023-02-27T00:00:53.992Z,2.50
2023-02-27T00:03:20.857Z,2.40
2023-02-27T00:05:47.592Z,2.50
2023-02-27T00:08:14.577Z,2.50
2023-02-27T00:10:41.318Z,2.40
2023-02-27T00:13:08.362Z,2.40
2023-02-27T00:15:35.140Z,2.50
2023-02-27T00:18:01.915Z,2.40
2023-02-27T00:20:28.711Z,2.50
2023-02-27T00:22:55.512Z,2.30
2023-02-27T00:25:22.278Z,2.30
2023-02-27T00:27:49.199Z,2.30
2023-02-27T00:30:16.541Z,2.40
2023-02-27T00:32:44.007Z,2.30
2023-02-27T00:35:12.167Z,2.30
2023-02-27T00:37:39.781Z,2.30
2023-02-27T00:40:07.723Z,2.20
2023-02-27T00:42:35.273Z,2.20
2023-02-27T00:45:03.189Z,2.30
2023-02-27T00:47:30.068Z,2.20
2023-02-27T00:49:57.004Z,2.20
2023-02-27T00:52:23.893Z,2.30
2023-02-27T00:54:50.712Z,2.30
2023-02-27T00:57:17.581Z,2.20
2023-02-27T00:59:44.494Z,2.30
2023-02-27T01:02:11.269Z,2.20
2023-02-27T01:04:39.266Z,2.20
2023-02-27T01:07:06.051Z,2.30
2023-02-27T01:09:32.819Z,2.10
2023-02-27T01:11:59.651Z,2.10
2023-02-27T01:14:26.867Z,2.10
2023-02-27T01:16:53.624Z,2.10
2023-02-27T01:19:20.566Z,1.90
2023-02-27T01:21:47.338Z,2.00
2023-02-27T01:24:14.168Z,2.00
2023-02-27T01:26:40.906Z,2.00
2023-02-27T01:29:07.746Z,2.00
2023-02-27T01:31:34.872Z,2.10
2023-02-27T01:34:01.636Z,2.10
2023-02-27T01:36:28.440Z,1.90
2023-02-27T01:38:55.239Z,1.90
2023-02-27T01:41:22.064Z,1.70
2023-02-27T01:44:01.788Z,1.80
2023-02-27T01:46:29.954Z,1.80
2023-02-27T01:49:11.354Z,1.80
2023-02-27T01:51:47.209Z,1.80
2023-02-27T01:54:18.850Z,1.80
2023-02-27T01:56:45.992Z,1.80
2023-02-27T01:59:13.138Z,1.80
2023-02-27T02:01:39.999Z,1.70
2023-02-27T02:04:26.892Z,1.80
2023-02-27T02:07:09.820Z,1.80
2023-02-27T02:09:46.307Z,1.70
2023-02-27T02:12:15.274Z,1.70
2023-02-27T02:14:42.435Z,1.70
2023-02-27T02:17:14.267Z,1.70
2023-02-27T02:20:24.386Z,1.70
2023-02-27T02:23:22.895Z,1.70
2023-02-27T02:25:52.696Z,1.70
2023-02-27T02:28:57.393Z,1.70
2023-02-27T02:31:36.322Z,1.70
2023-02-27T02:34:19.255Z,1.70
2023-02-27T02:37:13.954Z,1.70
2023-02-27T02:40:01.008Z,1.70
2023-02-27T02:42:49.029Z,1.70
2023-02-27T02:45:27.349Z,1.70
2023-02-27T02:48:13.482Z,1.70
2023-02-27T02:50:55.293Z,1.70
2023-02-27T02:53:37.062Z,1.50
2023-02-27T02:56:19.835Z,1.50
2023-02-27T02:58:51.734Z,1.50
2023-02-27T03:01:26.541Z,1.60
2023-02-27T03:04:18.456Z,1.60
2023-02-27T03:06:57.800Z,1.60
2023-02-27T03:09:28.893Z,1.50
2023-02-27T03:11:58.968Z,1.40
2023-02-27T03:14:33.572Z,1.50
2023-02-27T03:17:06.471Z,1.60
2023-02-27T03:19:42.760Z,1.50
2023-02-27T03:22:13.988Z,1.50
2023-02-27T03:24:49.764Z,1.50
2023-02-27T03:27:18.641Z,1.40
2023-02-27T03:30:05.047Z,1.30
2023-02-27T03:32:45.927Z,1.40
2023-02-27T03:35:13.354Z,1.50
2023-02-27T03:37:58.871Z,1.40
2023-02-27T03:40:34.520Z,1.50
2023-02-27T03:43:27.883Z,1.40
2023-02-27T03:46:07.354Z,1.40
2023-02-27T03:48:34.501Z,1.30
2023-02-27T03:51:01.681Z,1.30
2023-02-27T03:54:06.874Z,1.40
2023-02-27T03:56:44.429Z,1.40
2023-02-27T03:59:11.360Z,1.40
2023-02-27T04:01:38.199Z,1.20
2023-02-27T04:04:12.130Z,1.20
2023-02-27T04:07:00.436Z,1.30
2023-02-27T04:10:00.279Z,1.30
2023-02-27T04:12:46.059Z,1.20
2023-02-27T04:15:21.798Z,1.30
2023-02-27T04:18:07.106Z,1.20
2023-02-27T04:20:59.983Z,1.10
2023-02-27T04:23:34.612Z,1.00
2023-02-27T04:26:13.352Z,1.10
2023-02-27T04:28:42.965Z,1.00
2023-02-27T04:31:24.679Z,1.00
2023-02-27T04:34:04.923Z,1.00
2023-02-27T04:36:41.736Z,1.00
2023-02-27T04:39:18.047Z,1.00
2023-02-27T04:41:54.224Z,1.00
2023-02-27T04:44:22.819Z,1.00
2023-02-27T04:46:52.019Z,1.00
2023-02-27T04:49:25.960Z,1.00
2023-02-27T04:52:04.109Z,1.00
2023-02-27T04:54:46.201Z,1.10
2023-02-27T04:57:19.726Z,1.10
2023-02-27T04:59:52.254Z,1.10
2023-02-27T05:02:25.340Z,1.10
2023-02-27T05:04:56.824Z,1.10
2023-02-27T05:07:33.508Z,1.00
2023-02-27T05:10:05.187Z,1.00
2023-02-27T05:12:40.642Z,1.00
2023-02-27T05:15:15.899Z,1.10
2023-02-27T05:18:04.424Z,1.00
2023-02-27T05:21:01.639Z,1.00
2023-02-27T05:23:38.439Z,1.00
2023-02-27T05:26:30.251Z,1.10
2023-02-27T05:29:12.502Z,1.10
2023-02-27T05:32:08.489Z,1.00
2023-02-27T05:34:44.700Z,1.10
2023-02-27T05:37:18.399Z,1.10
2023-02-27T05:39:47.295Z,1.10
2023-02-27T05:42:28.707Z,1.00
2023-02-27T05:45:02.985Z,1.00
2023-02-27T05:47:34.662Z,1.00
2023-02-27T05:50:11.574Z,1.00
2023-02-27T05:52:40.396Z,1.00
2023-02-27T05:55:20.994Z,1.00
2023-02-27T05:58:04.050Z,1.00
2023-02-27T06:00:47.422Z,0.90
2023-02-27T06:03:14.581Z,0.90
2023-02-27T06:05:43.109Z,0.90
2023-02-27T06:08:11.129Z,0.90
2023-02-27T06:10:38.158Z,0.90
2023-02-27T06:13:05.005Z,0.90
2023-02-27T06:15:31.815Z,0.80
2023-02-27T06:17:58.623Z,0.90
2023-02-27T06:20:25.411Z,0.90
2023-02-27T06:22:52.258Z,0.80
2023-02-27T06:25:19.212Z,0.80
2023-02-27T06:27:46.164Z,0.80
2023-02-27T06:30:13.359Z,0.80
2023-02-27T06:32:40.384Z,0.80
2023-02-27T06:35:07.964Z,0.80
2023-02-27T06:37:34.765Z,0.80
2023-02-27T06:40:01.552Z,0.80
2023-02-27T06:42:28.396Z,0.80
2023-02-27T06:44:56.004Z,0.70
2023-02-27T06:47:22.810Z,0.70
2023-02-27T06:49:49.592Z,0.90
2023-02-27T06:52:16.390Z,0.90
2023-02-27T06:54:43.163Z,0.90
2023-02-27T06:57:09.993Z,0.80
2023-02-27T06:59:36.763Z,0.90
2023-02-27T07:02:03.692Z,0.90
2023-02-27T07:04:30.484Z,1.10
2023-02-27T07:07:36.274Z,1.20
2023-02-27T07:09:44.290Z,1.10
2023-02-27T07:12:11.186Z,1.10
2023-02-27T07:14:38.207Z,1.10
2023-02-27T07:17:05.309Z,1.20
2023-02-27T07:19:36.015Z,1.30
2023-02-27T07:22:03.504Z,1.40
2023-02-27T07:24:30.262Z,1.50
2023-02-27T07:26:57.003Z,1.50
2023-02-27T07:29:23.786Z,1.70
2023-02-27T07:31:50.610Z,1.90
2023-02-27T07:34:17.574Z,2.00
2023-02-27T07:36:44.365Z,2.10
2023-02-27T07:39:13.092Z,2.30
2023-02-27T07:41:40.205Z,2.30
2023-02-27T07:44:08.605Z,2.60
2023-02-27T07:46:36.169Z,2.90
2023-02-27T07:49:03.230Z,2.90
2023-02-27T07:51:30.099Z,2.80
2023-02-27T07:53:58.473Z,2.90
2023-02-27T07:56:28.127Z,3.10
2023-02-27T07:58:55.203Z,3.20
2023-02-27T08:01:22.116Z,3.40
2023-02-27T08:03:49.001Z,3.70
2023-02-27T08:06:15.878Z,3.70
2023-02-27T08:08:42.882Z,3.80
2023-02-27T08:11:10.035Z,4.30
2023-02-27T08:16:23.669Z,5.00
2023-02-27T08:18:50.562Z,5.10
2023-02-27T08:21:17.509Z,4.90
2023-02-27T08:23:44.286Z,5.30
2023-02-27T08:26:11.068Z,5.40
2023-02-27T08:28:38.157Z,5.40
2023-02-27T08:31:05.262Z,5.40
2023-02-27T08:33:32.353Z,6.40
2023-02-27T08:35:59.351Z,7.20
2023-02-27T08:38:26.527Z,6.70
2023-02-27T08:40:53.514Z,7.50
2023-02-27T08:43:23.806Z,8.50
2023-02-27T08:45:51.330Z,8.50
2023-02-27T08:48:18.602Z,8.60
2023-02-27T08:50:46.563Z,8.80
2023-02-27T08:53:13.861Z,8.30
2023-02-27T08:55:40.969Z,8.50
2023-02-27T08:58:07.853Z,8.30
2023-02-27T09:00:34.663Z,8.30
2023-02-27T09:03:01.526Z,8.10
2023-02-27T09:05:29.234Z,8.60
2023-02-27T09:07:56.074Z,8.30
2023-02-27T09:10:22.877Z,8.20
2023-02-27T09:12:49.669Z,8.80
2023-02-27T09:15:17.208Z,8.50
2023-02-27T09:17:44.060Z,8.70
2023-02-27T09:20:12.332Z,8.60
2023-02-27T09:22:39.489Z,8.70
2023-02-27T09:25:06.640Z,9.10
2023-02-27T09:27:34.537Z,9.00
2023-02-27T09:30:01.578Z,9.50
2023-02-27T09:32:28.702Z,9.40
2023-02-27T09:34:55.641Z,9.50
2023-02-27T09:37:25.032Z,9.60
2023-02-27T09:39:52.346Z,9.00
2023-02-27T09:42:23.490Z,9.80
2023-02-27T09:44:54.002Z,9.60
2023-02-27T09:47:37.283Z,9.00
2023-02-27T09:50:09.135Z,9.00
2023-02-27T09:52:37.326Z,9.10
2023-02-27T09:55:17.462Z,8.10
2023-02-27T09:57:51.647Z,9.20
2023-02-27T10:00:50.738Z,9.00
2023-02-27T10:03:46.744Z,8.60
2023-02-27T10:06:22.809Z,8.20
2023-02-27T10:09:20.392Z,9.00
2023-02-27T10:11:53.449Z,8.20
2023-02-27T10:14:30.689Z,8.20
2023-02-27T10:16:59.062Z,9.00
2023-02-27T10:19:34.143Z,9.40
2023-02-27T10:22:05.102Z,8.60
2023-02-27T10:24:37.989Z,9.40
2023-02-27T10:27:13.785Z,9.00
2023-02-27T10:29:41.797Z,9.00
2023-02-27T10:32:29.769Z,9.20
2023-02-27T10:35:09.862Z,8.80
2023-02-27T10:37:41.529Z,9.20
2023-02-27T10:40:15.165Z,8.50
2023-02-27T10:42:43.296Z,9.00
2023-02-27T10:45:16.734Z,8.50
2023-02-27T10:47:44.556Z,9.10
2023-02-27T10:50:20.460Z,9.40
2023-02-27T10:52:56.674Z,9.50
2023-02-27T10:55:27.529Z,9.70
2023-02-27T10:57:56.562Z,9.40
2023-02-27T11:00:40.636Z,9.00
2023-02-27T11:03:21.240Z,8.60
2023-02-27T11:05:58.110Z,8.80
2023-02-27T11:08:27.810Z,9.10
2023-02-27T11:10:57.675Z,9.20
2023-02-27T11:13:25.969Z,9.10
2023-02-27T11:16:12.973Z,8.50
2023-02-27T11:18:48.549Z,9.30
2023-02-27T11:21:19.622Z,9.60
2023-02-27T11:23:56.012Z,9.80
2023-02-27T11:26:27.411Z,9.50
2023-02-27T11:29:06.353Z,9.20
2023-02-27T11:31:35.446Z,9.30
2023-02-27T11:34:04.866Z,9.40
2023-02-27T11:36:46.879Z,8.90
2023-02-27T11:39:34.528Z,9.20
2023-02-27T11:42:17.960Z,9.40
2023-02-27T11:44:56.390Z,9.60
2023-02-27T11:47:28.459Z,9.20
2023-02-27T11:50:10.979Z,8.70
2023-02-27T11:52:37.673Z,8.20
2023-02-27T11:55:14.257Z,8.20
2023-02-27T11:57:44.138Z,8.10
2023-02-27T12:00:22.853Z,7.80
2023-02-27T12:03:27.236Z,8.30
2023-02-27T12:06:00.989Z,8.70
2023-02-27T12:09:12.457Z,8.50
2023-02-27T12:11:43.506Z,8.20
2023-02-27T12:14:44.511Z,7.80
2023-02-27T12:17:36.773Z,7.60
2023-02-27T12:20:22.778Z,7.60
2023-02-27T12:22:53.892Z,7.60
2023-02-27T12:25:46.460Z,7.50
2023-02-27T12:28:35.357Z,7.70
2023-02-27T12:31:32.190Z,7.70
2023-02-27T12:34:05.094Z,7.60
2023-02-27T12:36:32.025Z,7.50
2023-02-27T12:38:58.794Z,7.50
2023-02-27T12:41:27.547Z,7.60
2023-02-27T12:44:18.658Z,7.50
2023-02-27T12:46:51.395Z,7.60
2023-02-27T12:49:43.268Z,7.70
2023-02-27T12:52:28.092Z,7.40
2023-02-27T12:55:23.528Z,7.20
2023-02-27T12:58:17.391Z,8.10
2023-02-27T13:00:59.827Z,8.90
2023-02-27T13:03:40.016Z,9.60
2023-02-27T13:06:27.528Z,8.80
2023-02-27T13:09:03.554Z,8.60
2023-02-27T13:11:36.257Z,9.20
2023-02-27T13:14:41.610Z,9.20
2023-02-27T13:17:31.853Z,9.50
2023-02-27T13:20:34.256Z,10.30
2023-02-27T13:23:29.980Z,10.50
2023-02-27T13:25:58.659Z,9.70
2023-02-27T13:28:28.715Z,9.00
2023-02-27T13:31:15.019Z,8.50
2023-02-27T13:33:55.396Z,8.40
2023-02-27T13:36:39.062Z,8.10
2023-02-27T13:39:43.874Z,8.20
2023-02-27T13:42:26.191Z,8.00
2023-02-27T13:44:53.703Z,7.90
2023-02-27T13:47:29.763Z,7.90
2023-02-27T13:50:01.617Z,7.70
2023-02-27T13:52:31.142Z,7.90
2023-02-27T13:55:06.295Z,7.60
2023-02-27T13:57:38.646Z,7.40
2023-02-27T14:00:17.706Z,7.40
2023-02-27T14:02:59.719Z,7.50
2023-02-27T14:05:36.596Z,7.60
2023-02-27T14:08:22.651Z,7.90
2023-02-27T14:11:12.677Z,7.80
2023-02-27T14:13:45.547Z,7.70
2023-02-27T14:16:33.805Z,7.40
2023-02-27T14:19:01.458Z,7.50
2023-02-27T14:22:00.332Z,7.70
2023-02-27T14:24:38.221Z,7.70
2023-02-27T14:27:18.941Z,7.60
2023-02-27T14:29:48.229Z,7.50
2023-02-27T14:32:23.797Z,7.60
2023-02-27T14:34:52.194Z,7.80
2023-02-27T14:37:24.421Z,7.70
2023-02-27T14:39:53.909Z,7.60
2023-02-27T14:43:09.717Z,7.50
2023-02-27T14:45:37.624Z,7.50
2023-02-27T14:48:10.047Z,7.40
2023-02-27T14:50:42.094Z,7.20
2023-02-27T14:53:23.554Z,7.30
2023-02-27T14:55:58.805Z,7.50
2023-02-27T14:58:26.953Z,7.50
2023-02-27T15:00:57.951Z,7.60
2023-02-27T15:03:29.284Z,7.70
2023-02-27T15:06:01.090Z,7.70
2023-02-27T15:08:32.277Z,7.90
2023-02-27T15:11:02.380Z,7.80
2023-02-27T15:13:38.337Z,7.80
2023-02-27T15:16:23.702Z,8.10
2023-02-27T15:19:18.179Z,8.20
2023-02-27T15:21:51.090Z,8.00
2023-02-27T15:24:27.722Z,8.10
2023-02-27T15:27:02.420Z,8.50
2023-02-27T15:29:42.500Z,8.30
2023-02-27T15:32:27.249Z,8.20
2023-02-27T15:34:55.304Z,7.70
2023-02-27T15:37:33.199Z,7.70
2023-02-27T15:40:01.383Z,7.90
2023-02-27T15:42:35.161Z,7.80
2023-02-27T15:45:04.164Z,7.80
2023-02-27T15:47:32.430Z,7.60
2023-02-27T15:50:12.288Z,7.80
2023-02-27T15:52:43.723Z,7.60
2023-02-27T15:55:14.875Z,7.60
2023-02-27T15:58:00.806Z,7.60
2023-02-27T16:00:30.981Z,7.40
2023-02-27T16:02:58.877Z,7.50
2023-02-27T16:05:38.985Z,7.40
2023-02-27T16:08:06.904Z,7.30
2023-02-27T16:10:52.579Z,7.50
2023-02-27T16:13:25.364Z,7.40
2023-02-27T16:16:06.919Z,7.50
2023-02-27T16:18:47.292Z,7.30
2023-02-27T16:21:17.595Z,7.20
2023-02-27T16:23:45.430Z,7.20
2023-02-27T16:26:18.081Z,6.90
2023-02-27T16:29:04.273Z,6.90
2023-02-27T16:31:35.552Z,6.80
2023-02-27T16:34:19.748Z,6.80
2023-02-27T16:37:02.343Z,6.70
2023-02-27T16:39:29.559Z,6.70
2023-02-27T16:41:58.898Z,6.70
2023-02-27T16:44:26.193Z,6.70
2023-02-27T16:46:54.739Z,6.60
2023-02-27T16:49:27.747Z,6.60
2023-02-27T16:51:54.959Z,6.60
2023-02-27T16:54:22.186Z,6.60
2023-02-27T16:56:50.396Z,6.60
2023-02-27T16:59:33.797Z,6.50
2023-02-27T17:02:04.035Z,6.50
2023-02-27T17:04:30.922Z,6.50
2023-02-27T17:06:59.847Z,6.50
2023-02-27T17:09:29.728Z,6.40
2023-02-27T17:11:57.613Z,6.50
2023-02-27T17:14:24.858Z,6.40
2023-02-27T17:16:51.902Z,6.30
2023-02-27T17:19:21.472Z,6.40
2023-02-27T17:21:48.915Z,6.40
2023-02-27T17:24:15.688Z,6.40
2023-02-27T17:26:42.484Z,6.30
2023-02-27T17:29:09.827Z,6.20
2023-02-27T17:31:37.158Z,6.20
2023-02-27T17:34:05.315Z,6.20
2023-02-27T17:36:32.107Z,6.10
2023-02-27T17:39:02.574Z,6.10
2023-02-27T17:41:30.937Z,6.20
2023-02-27T17:43:59.121Z,6.20
2023-02-27T17:46:28.322Z,6.10
2023-02-27T17:48:59.904Z,6.10
2023-02-27T17:51:28.653Z,6.10
2023-02-27T17:53:56.137Z,5.90
2023-02-27T17:56:23.094Z,6.00
2023-02-27T17:58:50.286Z,5.90
2023-02-27T18:01:21.533Z,5.80
2023-02-27T18:03:49.478Z,5.70
2023-02-27T18:06:16.777Z,5.80
2023-02-27T18:08:43.733Z,5.80
2023-02-27T18:11:12.217Z,5.80
2023-02-27T18:13:40.230Z,5.80
2023-02-27T18:16:07.744Z,5.60
2023-02-27T18:18:39.782Z,5.70
2023-02-27T18:21:10.067Z,5.60
2023-02-27T18:23:37.649Z,5.60
2023-02-27T18:26:04.899Z,5.70
2023-02-27T18:28:31.823Z,5.60
2023-02-27T18:30:58.892Z,5.60
2023-02-27T18:33:25.756Z,5.50
2023-02-27T18:35:52.655Z,5.60
2023-02-27T18:38:19.507Z,5.50
2023-02-27T18:40:46.342Z,5.50
2023-02-27T18:43:14.995Z,5.50
2023-02-27T18:45:42.117Z,5.40
2023-02-27T18:48:09.286Z,5.50
2023-02-27T18:50:36.418Z,5.50
2023-02-27T18:53:03.501Z,5.40
2023-02-27T18:55:30.313Z,5.40
2023-02-27T18:57:57.164Z,5.40
2023-02-27T19:00:24.320Z,5.40
2023-02-27T19:02:51.226Z,5.30
2023-02-27T19:05:18.219Z,5.30
2023-02-27T19:07:45.129Z,5.30
2023-02-27T19:10:12.648Z,5.30
2023-02-27T19:12:39.533Z,5.30
2023-02-27T19:15:06.998Z,5.30
2023-02-27T19:17:33.811Z,5.20
2023-02-27T19:20:00.702Z,5.10
2023-02-27T19:22:29.524Z,5.10
2023-02-27T19:24:57.041Z,5.10
2023-02-27T19:27:23.851Z,5.10
2023-02-27T19:29:51.287Z,5.20
2023-02-27T19:32:18.396Z,5.00
2023-02-27T19:34:45.270Z,5.00
2023-02-27T19:37:12.433Z,5.00
2023-02-27T19:39:39.285Z,4.80
2023-02-27T19:42:06.087Z,4.90
2023-02-27T19:44:32.954Z,4.90
2023-02-27T19:47:00.262Z,4.90
2023-02-27T19:49:27.100Z,4.90
2023-02-27T19:51:53.853Z,4.90
2023-02-27T19:54:20.695Z,4.90
2023-02-27T19:56:47.805Z,4.80
2023-02-27T19:59:14.664Z,4.80
2023-02-27T20:01:41.799Z,4.80
2023-02-27T20:04:09.034Z,4.80
2023-02-27T20:06:42.474Z,4.70
2023-02-27T20:09:14.801Z,4.70
2023-02-27T20:11:45.605Z,4.70
2023-02-27T20:14:14.403Z,4.80
2023-02-27T20:16:42.125Z,4.70
2023-02-27T20:19:11.907Z,4.70
2023-02-27T20:21:38.661Z,4.70
2023-02-27T20:24:05.743Z,4.70
2023-02-27T20:26:35.107Z,4.70
2023-02-27T20:29:22.856Z,4.80
2023-02-27T20:31:51.536Z,4.80
2023-02-27T20:34:22.025Z,4.70
2023-02-27T20:36:53.146Z,4.80
2023-02-27T20:39:21.026Z,4.80
2023-02-27T20:41:48.557Z,4.70
2023-02-27T20:44:15.464Z,4.70
2023-02-27T20:46:43.340Z,4.80
2023-02-27T20:49:14.495Z,4.90
2023-02-27T20:51:41.420Z,4.80
2023-02-27T20:54:11.734Z,4.80
2023-02-27T20:56:41.447Z,4.90
2023-02-27T20:59:14.419Z,4.90
2023-02-27T21:01:42.483Z,4.80
2023-02-27T21:04:09.565Z,4.70
2023-02-27T21:06:36.540Z,4.70
2023-02-27T21:09:06.019Z,4.60
2023-02-27T21:11:33.911Z,4.60
2023-02-27T21:14:06.612Z,4.50
2023-02-27T21:16:33.547Z,4.50
2023-02-27T21:19:00.457Z,4.50
2023-02-27T21:21:32.374Z,4.50
2023-02-27T21:24:00.172Z,4.50
2023-02-27T21:26:39.030Z,4.50
2023-02-27T21:29:12.564Z,4.50
2023-02-27T21:31:41.731Z,4.50
2023-02-27T21:34:12.746Z,4.50
2023-02-27T21:36:42.388Z,4.40
2023-02-27T21:39:12.945Z,4.40
2023-02-27T21:41:40.182Z,4.30
2023-02-27T21:44:08.970Z,4.20
2023-02-27T21:46:35.863Z,4.20
2023-02-27T21:49:03.956Z,4.20
2023-02-27T21:51:40.046Z,4.20
2023-02-27T21:54:09.659Z,4.10
2023-02-27T21:56:36.641Z,4.10
2023-02-27T21:59:04.253Z,4.00
2023-02-27T22:01:32.164Z,4.10
2023-02-27T22:03:59.500Z,4.00
2023-02-27T22:06:32.058Z,4.00
2023-02-27T22:09:01.580Z,4.00
2023-02-27T22:11:30.124Z,3.90
2023-02-27T22:13:57.262Z,3.90
2023-02-27T22:16:24.397Z,3.80
2023-02-27T22:18:51.904Z,3.80
2023-02-27T22:21:22.762Z,3.80
2023-02-27T22:23:50.174Z,3.80
2023-02-27T22:26:20.609Z,3.70
2023-02-27T22:28:47.876Z,3.80
2023-02-27T22:31:23.070Z,3.80
2023-02-27T22:33:53.056Z,3.90
2023-02-27T22:36:23.395Z,3.80
2023-02-27T22:38:50.921Z,3.90
2023-02-27T22:41:21.191Z,3.90
2023-02-27T22:43:48.022Z,3.80
2023-02-27T22:46:17.971Z,3.80
2023-02-27T22:48:44.942Z,3.80
2023-02-27T22:51:14.764Z,3.80
2023-02-27T22:53:43.529Z,3.80
2023-02-27T22:56:12.255Z,3.60
2023-02-27T22:58:40.254Z,3.60
2023-02-27T23:01:14.233Z,3.60
2023-02-27T23:03:42.013Z,3.60
2023-02-27T23:06:11.729Z,3.60
2023-02-27T23:08:39.512Z,3.50
2023-02-27T23:11:06.850Z,3.40
2023-02-27T23:13:33.709Z,3.40
2023-02-27T23:16:01.919Z,3.40
2023-02-27T23:18:28.840Z,3.50
2023-02-27T23:20:55.607Z,3.50
2023-02-27T23:23:22.997Z,3.50
2023-02-27T23:25:49.871Z,3.40
2023-02-27T23:28:16.764Z,3.40
2023-02-27T23:30:43.548Z,3.30
2023-02-27T23:33:10.373Z,3.20
2023-02-27T23:35:37.365Z,3.30
2023-02-27T23:38:04.195Z,3.20
2023-02-27T23:40:31.096Z,3.30
2023-02-27T23:42:57.869Z,3.20
2023-02-27T23:45:24.874Z,3.20
2023-02-27T23:47:53.760Z,3.20
2023-02-27T23:50:31.896Z,3.10
2023-02-27T23:53:00.088Z,3.00
2023-02-27T23:55:30.005Z,3.00
2023-02-27T23:57:58.926Z,2.90
